createdAt,value
2023-01-20T00:01:38.001Z,23.77
2023-01-20T00:04:05.691Z,20.48
2023-01-20T00:06:33.009Z,18.45
2023-01-20T00:09:01.774Z,21.25
2023-01-20T00:11:29.102Z,18.17
2023-01-20T00:13:58.229Z,17.02
2023-01-20T00:16:25.630Z,21.77
2023-01-20T00:18:53.253Z,22.80
2023-01-20T00:21:20.455Z,19.67
2023-01-20T00:23:48.953Z,22.13
2023-01-20T00:26:18.595Z,17.02
2023-01-20T00:28:46.659Z,17.98
2023-01-20T00:31:19.660Z,19.33
2023-01-20T00:33:47.909Z,19.15
2023-01-20T00:36:16.694Z,20.67
2023-01-20T00:38:44.111Z,21.95
2023-01-20T00:41:12.052Z,22.20
2023-01-20T00:43:39.604Z,22.95
2023-01-20T00:46:06.900Z,17.60
2023-01-20T00:48:34.976Z,16.20
2023-01-20T00:51:02.669Z,19.23
2023-01-20T00:53:29.971Z,20.55
2023-01-20T00:55:57.199Z,21.27
2023-01-20T00:58:24.184Z,21.15
2023-01-20T01:00:52.393Z,20.52
2023-01-20T01:03:20.348Z,18.73
2023-01-20T01:05:47.735Z,21.48
2023-01-20T01:08:15.107Z,22.33
2023-01-20T01:10:42.156Z,17.33
2023-01-20T01:13:09.730Z,21.58
2023-01-20T01:15:37.007Z,21.67
2023-01-20T01:18:04.510Z,21.92
2023-01-20T01:20:31.529Z,21.75
2023-01-20T01:22:58.414Z,17.13
2023-01-20T01:25:25.415Z,20.67
2023-01-20T01:27:52.344Z,21.65
2023-01-20T01:30:19.393Z,20.85
2023-01-20T01:32:47.390Z,18.27
2023-01-20T01:35:14.921Z,18.85
2023-01-20T01:37:42.049Z,20.75
2023-01-20T01:40:10.472Z,24.00
2023-01-20T01:42:37.726Z,24.38
2023-01-20T01:45:10.823Z,23.80
2023-01-20T01:47:50.700Z,24.65
2023-01-20T01:50:21.641Z,22.73
2023-01-20T01:52:52.979Z,23.55
2023-01-20T01:55:23.012Z,20.20
2023-01-20T01:57:51.107Z,19.48
2023-01-20T02:00:18.138Z,19.23
2023-01-20T02:02:46.352Z,16.80
2023-01-20T02:05:15.530Z,18.67
2023-01-20T02:07:46.148Z,20.48
2023-01-20T02:10:14.075Z,18.80
2023-01-20T02:12:44.847Z,21.58
2023-01-20T02:15:11.879Z,18.40
2023-01-20T02:18:20.377Z,17.50
2023-01-20T02:21:00.504Z,14.85
2023-01-20T02:24:07.375Z,15.27
2023-01-20T02:26:53.730Z,18.15
2023-01-20T02:29:38.973Z,18.55
2023-01-20T02:32:40.921Z,17.25
2023-01-20T02:35:36.099Z,15.45
2023-01-20T02:43:28.589Z,16.50
2023-01-20T02:46:14.480Z,17.20
2023-01-20T02:48:48.096Z,15.98
2023-01-20T02:51:20.973Z,15.53
2023-01-20T02:53:49.788Z,16.25
2023-01-20T02:56:19.120Z,17.70
2023-01-20T02:58:50.860Z,16.25
2023-01-20T03:01:24.934Z,16.92
2023-01-20T03:03:55.440Z,16.27
2023-01-20T03:06:25.449Z,18.30
2023-01-20T03:09:13.390Z,18.00
2023-01-20T03:11:47.962Z,17.85
2023-01-20T03:16:42.626Z,17.10
2023-01-20T03:19:10.764Z,19.20
2023-01-20T03:21:37.987Z,17.63
2023-01-20T03:24:05.798Z,15.95
2023-01-20T03:26:33.512Z,17.73
2023-01-20T03:29:07.275Z,18.05
2023-01-20T03:31:41.842Z,16.70
2023-01-20T03:36:40.850Z,20.33
2023-01-20T03:39:08.008Z,15.43
2023-01-20T03:42:08.743Z,16.92
2023-01-20T03:45:10.309Z,18.70
2023-01-20T03:48:02.605Z,16.83
2023-01-20T03:50:48.756Z,19.27
2023-01-20T03:53:53.902Z,20.65
2023-01-20T03:56:47.245Z,15.18
2023-01-20T03:59:15.763Z,19.23
2023-01-20T04:01:44.552Z,19.05
2023-01-20T04:04:16.768Z,21.50
2023-01-20T04:06:46.027Z,18.50
2023-01-20T04:09:24.641Z,18.52
2023-01-20T04:11:52.076Z,21.63
2023-01-20T04:14:19.152Z,21.38
2023-01-20T04:16:55.380Z,18.40
2023-01-20T04:19:23.194Z,18.55
2023-01-20T04:21:55.907Z,19.75
2023-01-20T04:24:33.982Z,16.58
2023-01-20T04:27:01.677Z,17.52
2023-01-20T04:29:28.637Z,18.73
2023-01-20T04:32:03.980Z,18.45
2023-01-20T04:34:31.022Z,16.67
2023-01-20T04:36:58.048Z,18.55
2023-01-20T04:39:25.201Z,19.08
2023-01-20T04:41:52.428Z,26.50
2023-01-20T04:44:19.666Z,20.88
2023-01-20T04:46:47.495Z,19.45
2023-01-20T04:49:15.136Z,17.85
2023-01-20T04:51:42.083Z,20.65
2023-01-20T04:54:08.965Z,19.25
2023-01-20T04:56:35.934Z,19.35
2023-01-20T04:59:03.465Z,18.90
2023-01-20T05:01:30.585Z,19.67
2023-01-20T05:03:57.664Z,19.15
2023-01-20T05:06:24.769Z,18.85
2023-01-20T05:08:52.116Z,18.42
2023-01-20T05:11:19.682Z,25.67
2023-01-20T05:13:46.650Z,29.90
2023-01-20T05:16:13.588Z,26.38
2023-01-20T05:18:40.655Z,25.38
2023-01-20T05:21:08.838Z,23.42
2023-01-20T05:23:36.167Z,17.35
2023-01-20T05:26:03.310Z,18.02
2023-01-20T05:28:30.270Z,15.75
2023-01-20T05:30:57.645Z,18.48
2023-01-20T05:33:24.963Z,17.48
2023-01-20T05:35:53.324Z,17.50
2023-01-20T05:38:22.139Z,17.30
2023-01-20T05:40:49.184Z,16.80
2023-01-20T05:43:16.145Z,13.65
2023-01-20T05:45:43.453Z,18.10
2023-01-20T05:48:10.460Z,16.33
2023-01-20T05:50:37.317Z,16.75
2023-01-20T05:53:04.277Z,14.88
2023-01-20T05:55:31.193Z,18.15
2023-01-20T05:58:02.428Z,14.80
2023-01-20T06:00:29.919Z,14.38
2023-01-20T06:02:57.190Z,20.02
2023-01-20T06:05:24.487Z,18.45
2023-01-20T06:07:52.098Z,17.52
2023-01-20T06:10:19.055Z,18.15
2023-01-20T06:12:53.148Z,16.35
2023-01-20T06:15:20.679Z,17.10
2023-01-20T06:17:47.839Z,18.95
2023-01-20T06:20:14.905Z,15.88
2023-01-20T06:22:42.019Z,16.88
2023-01-20T06:25:09.387Z,14.82
2023-01-20T06:27:37.356Z,17.33
2023-01-20T06:30:06.312Z,16.95
2023-01-20T06:32:33.479Z,17.15
2023-01-20T06:35:00.541Z,16.90
2023-01-20T06:37:27.657Z,18.33
2023-01-20T06:39:54.843Z,18.05
2023-01-20T06:42:22.052Z,13.65
2023-01-20T06:44:49.323Z,16.90
2023-01-20T06:47:16.350Z,13.77
2023-01-20T06:49:43.432Z,16.85
2023-01-20T06:52:10.626Z,17.55
2023-01-20T06:54:37.637Z,20.73
2023-01-20T06:57:04.602Z,19.15
2023-01-20T06:59:31.623Z,19.20
2023-01-20T07:01:58.792Z,21.02
2023-01-20T07:04:26.452Z,20.15
2023-01-20T07:06:53.381Z,20.10
2023-01-20T07:09:20.383Z,19.35
2023-01-20T07:11:47.358Z,17.80
2023-01-20T07:14:14.426Z,18.60
2023-01-20T07:16:41.558Z,18.27
2023-01-20T07:19:08.613Z,19.08
2023-01-20T07:21:35.756Z,23.33
2023-01-20T07:24:03.080Z,17.10
2023-01-20T07:26:30.968Z,18.95
2023-01-20T07:28:58.864Z,19.52
2023-01-20T07:31:27.701Z,19.63
2023-01-20T07:33:56.242Z,18.50
2023-01-20T07:36:24.068Z,16.25
2023-01-20T07:38:51.499Z,18.10
2023-01-20T07:41:19.909Z,17.15
2023-01-20T07:43:52.330Z,18.42
2023-01-20T07:46:19.817Z,15.13
2023-01-20T07:48:46.945Z,18.92
2023-01-20T07:51:15.763Z,16.55
2023-01-20T07:53:48.163Z,18.95
2023-01-20T07:56:21.422Z,16.05
2023-01-20T07:58:50.624Z,17.40
2023-01-20T08:01:21.700Z,17.95
2023-01-20T08:03:49.384Z,18.90
2023-01-20T08:06:19.035Z,21.45
2023-01-20T08:08:46.430Z,20.05
2023-01-20T08:11:15.100Z,19.92
2023-01-20T08:13:42.756Z,33.28
2023-01-20T08:16:12.475Z,22.42
2023-01-20T08:18:40.044Z,17.50
2023-01-20T08:21:16.216Z,19.83
2023-01-20T08:23:43.181Z,20.63
2023-01-20T08:26:10.338Z,18.05
2023-01-20T08:28:37.469Z,20.98
2023-01-20T08:31:13.605Z,20.52
2023-01-20T08:33:44.764Z,25.25
2023-01-20T08:36:18.438Z,22.85
2023-01-20T08:38:46.881Z,18.48
2023-01-20T08:41:21.211Z,21.88
2023-01-20T08:43:48.991Z,19.20
2023-01-20T08:46:18.017Z,20.60
2023-01-20T08:48:45.441Z,19.08
2023-01-20T08:51:16.070Z,17.67
2023-01-20T08:53:43.416Z,24.00
2023-01-20T08:56:11.961Z,19.98
2023-01-20T08:58:39.780Z,17.58
2023-01-20T09:01:16.160Z,18.00
2023-01-20T09:03:55.400Z,22.13
2023-01-20T09:06:45.239Z,19.52
2023-01-20T09:09:13.999Z,18.30
2023-01-20T09:11:41.116Z,19.42
2023-01-20T09:14:08.182Z,19.20
2023-01-20T09:16:35.479Z,18.33
2023-01-20T09:19:03.459Z,18.65
2023-01-20T09:21:30.421Z,20.98
2023-01-20T09:23:57.493Z,18.48
2023-01-20T09:26:35.257Z,18.80
2023-01-20T09:29:09.359Z,17.88
2023-01-20T09:31:58.370Z,19.85
2023-01-20T09:34:27.730Z,20.35
2023-01-20T09:37:19.541Z,22.23
2023-01-20T09:40:05.217Z,23.00
2023-01-20T09:43:21.484Z,26.63
2023-01-20T09:45:56.852Z,29.52
2023-01-20T09:49:09.224Z,26.00
2023-01-20T09:52:21.181Z,21.08
2023-01-20T09:54:53.381Z,20.65
2023-01-20T09:57:25.040Z,18.92
2023-01-20T10:00:03.793Z,18.40
2023-01-20T10:02:35.215Z,17.10
2023-01-20T10:05:13.517Z,17.73
2023-01-20T10:07:56.603Z,20.88
2023-01-20T10:10:31.980Z,16.55
2023-01-20T10:13:16.733Z,17.02
2023-01-20T10:15:50.165Z,13.80
2023-01-20T10:18:29.657Z,15.55
2023-01-20T10:21:09.918Z,15.63
2023-01-20T10:23:36.878Z,16.70
2023-01-20T10:26:22.728Z,17.35
2023-01-20T10:29:01.262Z,15.95
2023-01-20T10:31:40.780Z,17.52
2023-01-20T10:34:22.113Z,15.25
2023-01-20T10:36:58.941Z,14.70
2023-01-20T10:39:38.488Z,16.63
2023-01-20T10:42:12.500Z,15.40
2023-01-20T10:44:40.489Z,14.98
2023-01-20T10:47:35.101Z,14.88
2023-01-20T10:50:32.983Z,17.45
2023-01-20T10:53:24.325Z,13.60
2023-01-20T10:55:59.748Z,12.93
2023-01-20T10:58:37.818Z,12.13
2023-01-20T11:01:09.313Z,11.20
2023-01-20T11:03:42.639Z,15.82
2023-01-20T11:06:29.420Z,13.40
2023-01-20T11:08:57.257Z,16.02
2023-01-20T11:11:25.729Z,14.18
2023-01-20T11:13:53.469Z,16.17
2023-01-20T11:16:26.716Z,20.13
2023-01-20T11:19:02.337Z,13.00
2023-01-20T11:21:32.082Z,12.45
2023-01-20T11:24:00.014Z,13.95
2023-01-20T11:26:33.342Z,14.48
2023-01-20T11:29:30.422Z,14.43
2023-01-20T11:31:59.696Z,11.70
2023-01-20T11:34:32.379Z,13.13
2023-01-20T11:37:05.596Z,12.55
2023-01-20T11:39:50.416Z,10.15
2023-01-20T11:45:19.878Z,14.68
2023-01-20T11:48:02.818Z,14.10
2023-01-20T11:50:39.445Z,17.98
2023-01-20T11:53:31.620Z,11.18
2023-01-20T11:56:05.843Z,15.98
2023-01-20T11:58:48.178Z,13.70
2023-01-20T12:01:41.492Z,11.98
2023-01-20T12:04:32.688Z,13.60
2023-01-20T12:07:22.409Z,11.95
2023-01-20T12:09:54.107Z,13.38
2023-01-20T12:12:33.649Z,12.55
2023-01-20T12:15:06.459Z,15.00
2023-01-20T12:17:48.923Z,10.48
2023-01-20T12:20:23.333Z,13.55
2023-01-20T12:23:10.788Z,14.27
2023-01-20T12:25:50.631Z,11.23
2023-01-20T12:28:37.362Z,10.55
2023-01-20T12:31:07.286Z,10.15
2023-01-20T12:33:38.741Z,8.70
2023-01-20T12:36:21.984Z,9.57
2023-01-20T12:38:57.781Z,8.73
2023-01-20T12:41:48.418Z,11.95
2023-01-20T12:44:31.516Z,10.23
2023-01-20T12:47:43.271Z,13.68
2023-01-20T12:50:22.347Z,10.00
2023-01-20T12:53:18.862Z,10.60
2023-01-20T12:56:16.591Z,11.00
2023-01-20T12:59:17.326Z,11.02
2023-01-20T13:02:08.969Z,6.95
2023-01-20T13:05:12.815Z,5.80
2023-01-20T13:07:52.592Z,7.85
2023-01-20T13:10:25.820Z,6.78
2023-01-20T13:13:18.236Z,6.88
2023-01-20T13:15:54.385Z,7.55
2023-01-20T13:18:40.122Z,5.53
2023-01-20T13:21:12.665Z,8.60
2023-01-20T13:23:40.239Z,24.85
2023-01-20T13:26:07.949Z,28.65
2023-01-20T13:28:35.371Z,8.00
2023-01-20T13:31:37.403Z,12.07
2023-01-20T13:34:22.731Z,9.10
2023-01-20T13:37:07.515Z,5.90
2023-01-20T13:39:42.313Z,6.53
2023-01-20T13:42:38.162Z,7.07
2023-01-20T13:45:14.680Z,8.73
2023-01-20T13:48:22.699Z,6.20
2023-01-20T13:50:50.417Z,5.00
2023-01-20T13:53:20.529Z,6.63
2023-01-20T13:55:48.293Z,7.25
2023-01-20T13:58:48.177Z,4.38
2023-01-20T14:01:15.934Z,4.07
2023-01-20T14:03:43.692Z,4.57
2023-01-20T14:06:13.972Z,6.93
2023-01-20T14:08:46.368Z,5.22
2023-01-20T14:11:16.446Z,5.05
2023-01-20T14:13:55.335Z,5.30
2023-01-20T14:16:31.494Z,5.78
2023-01-20T14:19:01.235Z,7.40
2023-01-20T14:21:30.434Z,5.35
2023-01-20T14:23:57.473Z,4.30
2023-01-20T14:26:31.401Z,5.55
2023-01-20T14:29:00.572Z,5.70
2023-01-20T14:31:45.602Z,6.10
2023-01-20T14:34:29.005Z,4.28
2023-01-20T14:36:59.280Z,3.90
2023-01-20T14:39:29.475Z,4.45
2023-01-20T14:41:59.144Z,4.57
2023-01-20T14:44:32.719Z,5.88
2023-01-20T14:47:02.572Z,6.05
2023-01-20T14:49:35.806Z,5.05
2023-01-20T14:52:05.903Z,8.80
2023-01-20T14:54:36.001Z,6.65
2023-01-20T14:57:21.484Z,10.27
2023-01-20T14:59:59.593Z,6.95
2023-01-20T15:02:33.579Z,6.78
2023-01-20T15:05:00.956Z,7.40
2023-01-20T15:07:28.175Z,8.15
2023-01-20T15:10:09.466Z,7.18
2023-01-20T15:12:42.445Z,6.53
2023-01-20T15:15:26.967Z,6.43
2023-01-20T15:18:17.509Z,8.98
2023-01-20T15:21:03.896Z,4.30
2023-01-20T15:23:41.267Z,16.45
2023-01-20T15:26:21.278Z,4.97
2023-01-20T15:28:48.372Z,5.50
2023-01-20T15:31:16.950Z,5.28
2023-01-20T15:33:44.318Z,10.23
2023-01-20T15:36:20.337Z,5.35
2023-01-20T15:38:47.595Z,5.22
2023-01-20T15:41:14.810Z,5.35
2023-01-20T15:43:42.462Z,6.18
2023-01-20T15:46:12.041Z,12.02
2023-01-20T15:48:39.298Z,10.73
2023-01-20T15:51:09.998Z,10.70
2023-01-20T15:53:36.984Z,9.73
2023-01-20T15:56:04.074Z,10.68
2023-01-20T15:58:32.982Z,7.15
2023-01-20T16:01:00.549Z,7.60
2023-01-20T16:03:28.414Z,7.78
2023-01-20T16:05:56.516Z,9.32
2023-01-20T16:08:30.427Z,9.18
2023-01-20T16:10:57.449Z,9.77
2023-01-20T16:13:24.451Z,11.05
2023-01-20T16:15:51.456Z,6.90
2023-01-20T16:18:18.703Z,7.68
2023-01-20T16:20:47.688Z,7.70
2023-01-20T16:23:14.807Z,5.68
2023-01-20T16:25:42.049Z,7.60
2023-01-20T16:28:20.996Z,8.13
2023-01-20T16:30:51.003Z,5.40
2023-01-20T16:33:23.741Z,8.70
2023-01-20T16:35:52.483Z,6.28
2023-01-20T16:38:22.248Z,8.70
2023-01-20T16:40:57.989Z,9.13
2023-01-20T16:43:24.955Z,14.82
2023-01-20T16:45:56.099Z,11.55
2023-01-20T16:48:24.698Z,10.95
2023-01-20T16:50:52.975Z,7.05
2023-01-20T16:53:20.387Z,6.82
2023-01-20T16:55:49.128Z,5.78
2023-01-20T16:58:16.752Z,5.75
2023-01-20T17:00:43.789Z,7.22
2023-01-20T17:03:11.417Z,6.32
2023-01-20T17:05:39.085Z,9.07
2023-01-20T17:08:06.277Z,10.00
2023-01-20T17:10:33.872Z,9.27
2023-01-20T17:13:01.105Z,9.60
2023-01-20T17:15:28.330Z,9.98
2023-01-20T17:17:58.335Z,9.57
2023-01-20T17:20:26.832Z,10.52
2023-01-20T17:22:55.742Z,5.60
2023-01-20T17:25:23.237Z,5.05
2023-01-20T17:27:50.213Z,5.85
2023-01-20T17:30:17.646Z,7.22
2023-01-20T17:32:48.496Z,6.35
2023-01-20T17:35:16.662Z,6.70
2023-01-20T17:37:44.058Z,7.47
2023-01-20T17:40:12.439Z,7.63
2023-01-20T17:42:39.748Z,8.90
2023-01-20T17:45:07.178Z,8.05
2023-01-20T17:47:34.239Z,8.23
2023-01-20T17:50:01.223Z,9.05
2023-01-20T17:52:28.746Z,10.35
2023-01-20T17:54:55.890Z,9.27
2023-01-20T17:57:22.833Z,11.73
2023-01-20T17:59:49.888Z,9.23
2023-01-20T18:02:18.625Z,10.07
2023-01-20T18:04:45.856Z,12.75
2023-01-20T18:07:13.598Z,10.40
2023-01-20T18:09:43.011Z,12.45
2023-01-20T18:12:10.084Z,12.60
2023-01-20T18:14:37.131Z,11.43
2023-01-20T18:17:04.140Z,12.60
2023-01-20T18:19:31.245Z,11.32
2023-01-20T18:22:00.370Z,17.15
2023-01-20T18:24:27.463Z,13.32
2023-01-20T18:26:56.219Z,13.07
2023-01-20T18:29:24.686Z,16.20
2023-01-20T18:31:51.865Z,12.85
2023-01-20T18:34:19.211Z,11.85
2023-01-20T18:36:46.892Z,13.73
2023-01-20T18:39:19.220Z,12.98
2023-01-20T18:41:47.394Z,15.55
2023-01-20T18:44:15.192Z,19.17
2023-01-20T18:46:42.895Z,16.85
2023-01-20T18:49:13.685Z,14.48
2023-01-20T18:51:42.340Z,16.30
2023-01-20T18:54:17.472Z,14.65
2023-01-20T18:59:12.139Z,15.48
2023-01-20T19:01:40.438Z,21.92
2023-01-20T19:04:10.434Z,20.50
2023-01-20T19:06:40.284Z,17.13
2023-01-20T19:09:08.474Z,18.77
2023-01-20T19:11:40.387Z,16.65
2023-01-20T19:14:11.076Z,18.75
2023-01-20T19:16:42.201Z,23.92
2023-01-20T19:19:11.748Z,21.92
2023-01-20T19:21:38.719Z,23.20
2023-01-20T19:24:07.900Z,17.40
2023-01-20T19:26:37.188Z,18.65
2023-01-20T19:29:07.053Z,21.77
2023-01-20T19:31:37.148Z,28.40
2023-01-20T19:34:04.841Z,20.38
2023-01-20T19:36:32.776Z,16.48
2023-01-20T19:39:01.334Z,14.70
2023-01-20T19:41:33.262Z,14.18
2023-01-20T19:44:03.096Z,13.48
2023-01-20T19:46:33.238Z,11.00
2023-01-20T19:49:02.639Z,14.68
2023-01-20T19:51:32.088Z,19.83
2023-01-20T19:54:03.246Z,16.40
2023-01-20T19:56:33.046Z,60.15
2023-01-20T19:59:01.499Z,28.27
2023-01-20T20:01:34.263Z,16.98
2023-01-20T20:04:10.184Z,15.10
2023-01-20T20:06:39.721Z,12.15
2023-01-20T20:09:12.379Z,14.15
2023-01-20T20:11:39.680Z,13.00
2023-01-20T20:14:08.378Z,13.35
2023-01-20T20:16:37.233Z,13.95
2023-01-20T20:19:06.006Z,15.85
2023-01-20T20:21:34.378Z,17.45
2023-01-20T20:24:03.158Z,18.40
2023-01-20T20:26:32.613Z,21.30
2023-01-20T20:29:01.460Z,18.45
2023-01-20T20:31:29.636Z,18.10
2023-01-20T20:33:58.653Z,22.63
2023-01-20T20:36:28.641Z,21.63
2023-01-20T20:38:57.540Z,20.63
2023-01-20T20:41:27.383Z,20.55
2023-01-20T20:43:55.160Z,20.27
2023-01-20T20:46:22.439Z,19.70
2023-01-20T20:48:49.837Z,16.58
2023-01-20T20:51:17.499Z,16.92
2023-01-20T20:53:45.122Z,20.15
2023-01-20T20:56:14.752Z,19.98
2023-01-20T20:59:00.075Z,20.15
2023-01-20T21:01:29.942Z,18.88
2023-01-20T21:03:58.409Z,18.33
2023-01-20T21:06:26.138Z,22.50
2023-01-20T21:08:53.261Z,24.23
2023-01-20T21:11:20.794Z,27.77
2023-01-20T21:13:49.635Z,31.60
2023-01-20T21:16:20.957Z,33.53
2023-01-20T21:18:48.647Z,29.50
2023-01-20T21:21:17.352Z,24.92
2023-01-20T21:23:48.778Z,24.45
2023-01-20T21:26:16.352Z,30.08
2023-01-20T21:28:44.471Z,31.30
2023-01-20T21:31:16.599Z,27.42
2023-01-20T21:33:45.940Z,26.00
2023-01-20T21:36:13.534Z,21.25
2023-01-20T21:38:46.417Z,27.73
2023-01-20T21:41:14.935Z,25.98
2023-01-20T21:44:02.702Z,24.00
2023-01-20T21:46:49.709Z,25.77
2023-01-20T21:49:54.763Z,27.27
2023-01-20T21:52:41.916Z,24.67
2023-01-20T21:55:19.936Z,28.60
2023-01-20T21:57:50.179Z,23.52
2023-01-20T22:00:18.830Z,21.58
2023-01-20T22:02:46.144Z,19.50
2023-01-20T22:05:13.594Z,18.48
2023-01-20T22:07:41.168Z,17.58
2023-01-20T22:10:09.488Z,15.38
2023-01-20T22:12:37.431Z,20.23
2023-01-20T22:15:05.033Z,18.52
2023-01-20T22:17:32.528Z,25.05
2023-01-20T22:19:59.696Z,23.13
2023-01-20T22:22:26.701Z,24.50
2023-01-20T22:24:53.674Z,24.05
2023-01-20T22:27:20.936Z,21.38
2023-01-20T22:29:47.952Z,27.38
2023-01-20T22:32:14.962Z,22.17
2023-01-20T22:34:42.416Z,24.58
2023-01-20T22:37:09.362Z,21.20
2023-01-20T22:39:36.476Z,21.38
2023-01-20T22:42:03.930Z,21.48
2023-01-20T22:44:31.199Z,21.65
2023-01-20T22:46:58.538Z,18.35
2023-01-20T22:49:25.499Z,20.00
2023-01-20T22:51:54.686Z,18.95
2023-01-20T22:54:22.706Z,23.17
2023-01-20T22:56:49.826Z,23.35
2023-01-20T22:59:17.146Z,23.73
2023-01-20T23:01:44.118Z,29.15
2023-01-20T23:04:11.145Z,27.92
2023-01-20T23:06:39.343Z,29.67
2023-01-20T23:09:09.108Z,23.92
2023-01-20T23:11:38.163Z,26.38
2023-01-20T23:14:05.371Z,19.75
2023-01-20T23:16:32.467Z,22.90
2023-01-20T23:18:59.589Z,22.05
2023-01-20T23:21:26.610Z,24.13
2023-01-20T23:23:56.576Z,22.45
2023-01-20T23:26:26.116Z,24.95
2023-01-20T23:28:53.937Z,21.98
2023-01-20T23:31:21.730Z,22.70
2023-01-20T23:33:48.867Z,21.38
2023-01-20T23:36:18.644Z,28.83
2023-01-20T23:38:45.986Z,26.08
2023-01-20T23:41:14.335Z,25.70
2023-01-20T23:43:42.228Z,27.83
2023-01-20T23:46:10.573Z,25.98
2023-01-20T23:48:38.142Z,25.77
2023-01-20T23:51:06.509Z,24.02
2023-01-20T23:53:37.716Z,22.40
2023-01-20T23:56:11.335Z,20.95
2023-01-20T23:58:38.341Z,23.13
